Frenchburg, Kentucky
Current Conditions -  °F | °C
As of 2:50 PM on Thursday 30 Oct 2014 (Local Time) from KSYM Reporting Station
Overcast Overcast  
Wind Chill: 48°   Ceiling: 3400
Heat Index: 48°   Visibility: 10mi
Dew Point: 34°   Wind: 0mph
Humidity: 57%   Direction: NA
Pressure: 30.12"   Gusts: NA
Location:  37.95°N, 83.63°W
Report Text: KSYM 301850Z AUTO 00000KT 10SM OVC034 09/01 A3012 RMK AO2
Loading
Personal Weather Stations






























Interactive Weather Map
Tropical Storm Tracking
New forecast layout! Learn more

10-Day Weather Forecast

Advertisements
Track Severe Weather on mobile